East Tawas, MI (48730)

11:01 AM EDT on May 25, 2015 (GMT -0400)
Tawas Bay Weather | | Change Station
CLOSE
Current Station
Personal Weather Station
Location: East Tawas, MI
Elevation: 590 ft
Nearby Weather Stations

Elev 590 ft 44.28 °N, 83.48 °W | Updated 12 seconds ago

Mostly Cloudy
Mostly Cloudy
59.1 °F
Feels Like 59.1 °F
N
1.0
Wind Variable Wind from SE
Gusts 3.0 mph

Today
High -- | Low -- °F
--% Chance of Precip.
Yesterday
High -- | Low -- °F
Precip. -- in
5:57 AM 9:04 PM
Waxing Crescent, 49% visible
Pressure 29.90 in
Visibility 10.0 miles
Clouds Scattered Clouds 11000 ft
Dew Point 56 °F
Humidity 90%
Rainfall 0.14 in
Snow Depth Not available.
UV 6 out of 12
Pollen 1.00 out of 12
Air Quality Not available.
Flu Activity Sporadic
METAR KOSC 251453Z AUTO 21006KT 10SM SCT110 20/16 A2990 RMK AO2 T01970158

More Conditions Fewer Conditions

Pressure 29.90 in
Visibility 10.0 miles
Clouds Scattered Clouds 11000 ft
Dew Point 56 °F
Humidity 90%
Rainfall 0.14 in
Snow Depth Not available.
UV 6 out of 12
Pollen 1.00 out of 12
Air Quality Not available.
Flu Activity Sporadic
METAR KOSC 251453Z AUTO 21006KT 10SM SCT110 20/16 A2990 RMK AO2 T01970158

More Conditions Fewer Conditions

Nowcast | as of 11:00 am EDT on May 25, 2015

At 12 PM...mostly cloudy. Scattered showers. Temperature 68. South winds 8 mph. At 2 PM...cloudy. Chance of showers and slight chance of thunderstorms. Temperature 71. South winds 13 mph. At 4 PM...mostly cloudy. Chance of showers and slight chance of thunderstorms. Temperature 74. Southwest winds 17 mph. At 6 PM...mostly cloudy. Chance of showers and slight chance of thunderstorms. Temperature 73. Southwest winds 18 mph.

×

10-Day Weather Forecast

Almanac

Astronomy

May. 25, 2015 Rise Set
Actual Time
Civil Twilight
Nautical Twilight
Astronomical Twilight
Moon
Length of Visible Light
Length of Day
Tomorrow will be .
, % of the Moon is Illuminated

Today's Extremes

State Highs State Lows

Community

WunderPhotos

Upload Photos

1,824,028 photos uploaded!

WunderBlogs® & News

Nearby

Air Quality

  Air Quality AQ Index Pollutant
Not available.

Snow Depth

Station Depth Elevation

Earthquake Activity

City Distance Mag. Time & Date
Minimum magnitude displayed is 2.5.

Coastal Water Temperatures

Place Temperature

Stations

Nearby Weather Stations

Station Location Temp. Windchill Dew Point Humidity Wind Precip. Elev Updated Type